Time;durP1;ratioP1;P1;durP2;ratioP2;P2;SDS_P1;SDS_P2;PMS_P1;PMS_P2;Temp;Humidity;BMP_temperature;BMP_pressure;BME280_temperature;BME280_humidity;BME280_pressure;Samples;Min_cycle;Max_cycle;Signal;HPM_P1;HPM_P2
2022/10/13 00:01:56;;;;;;;15.60;6.75;;;;;;;16.41;77.03;101472.69;5052496;28;20396;-72
2022/10/13 00:04:26;;;;;;;12.35;7.22;;;;;;;16.41;77.28;101469.09;5052639;28;20048;-72
2022/10/13 00:06:53;;;;;;;11.77;6.82;;;;;;;16.41;77.15;101467.16;5051610;28;20391;-72
2022/10/13 00:10:04;;;;;;;17.95;6.65;;;;;;;16.39;76.94;101472.97;5049803;28;20033;-72
2022/10/13 00:13:09;;;;;;;17.40;7.13;;;;;;;16.46;77.28;101471.78;5054520;28;20044;-72
2022/10/13 00:15:41;;;;;;;10.20;6.13;;;;;;;16.37;77.11;101477.97;5052476;28;20130;-72
2022/10/13 00:18:10;;;;;;;12.52;7.32;;;;;;;16.42;77.37;101471.56;5051486;28;20411;-71
2022/10/13 00:20:46;;;;;;;11.52;7.07;;;;;;;16.39;77.33;101481.25;5052932;28;20051;-72
2022/10/13 00:23:15;;;;;;;13.40;7.30;;;;;;;16.43;77.17;101475.16;5051049;28;20052;-72
2022/10/13 00:25:46;;;;;;;10.07;5.93;;;;;;;16.38;77.37;101476.84;5052395;28;20037;-72
2022/10/13 00:28:16;;;;;;;12.02;6.28;;;;;;;16.37;78.09;101475.22;5036701;28;20064;-72
2022/10/13 00:30:44;;;;;;;17.05;7.45;;;;;;;16.35;77.83;101465.59;5045122;28;20057;-72
2022/10/13 00:33:12;;;;;;;15.55;6.82;;;;;;;16.32;77.34;101471.72;5051983;28;20037;-72
2022/10/13 00:35:46;;;;;;;9.80;6.38;;;;;;;16.42;77.63;101471.56;5050848;28;20048;-72
2022/10/13 00:38:20;;;;;;;12.93;6.63;;;;;;;16.39;77.82;101483.22;5050215;28;20048;-72
2022/10/13 00:40:54;;;;;;;13.02;6.15;;;;;;;16.36;77.63;101473.56;5040570;28;20053;-72
2022/10/13 00:43:46;;;;;;;12.50;5.97;;;;;;;16.34;78.14;101475.81;5051909;28;20056;-72
2022/10/13 00:46:14;;;;;;;12.48;6.53;;;;;;;16.28;78.27;101467.91;5050038;28;20049;-72
2022/10/13 00:48:44;;;;;;;13.10;6.63;;;;;;;16.23;77.96;101474.31;5051579;28;20395;-72
2022/10/13 00:51:17;;;;;;;14.32;7.05;;;;;;;16.19;78.53;101473.25;5051366;28;20045;-72
2022/10/13 00:53:46;;;;;;;11.27;6.00;;;;;;;16.20;78.43;101474.91;5050844;28;20052;-72
2022/10/13 00:56:17;;;;;;;14.30;7.10;;;;;;;16.18;78.63;101471.63;5050263;28;20056;-72
2022/10/13 00:58:46;;;;;;;12.82;7.03;;;;;;;16.21;78.83;101473.78;5048952;28;20502;-72
2022/10/13 01:01:15;;;;;;;12.73;7.30;;;;;;;16.15;79.47;101473.03;5050234;28;20072;-72
2022/10/13 01:03:43;;;;;;;13.80;6.97;;;;;;;16.17;78.63;101478.25;5051625;28;20404;-72
2022/10/13 01:06:11;;;;;;;11.35;6.68;;;;;;;16.16;80.04;101465.56;5051467;28;20049;-72
2022/10/13 01:08:39;;;;;;;13.73;7.03;;;;;;;16.15;79.45;101474.97;5050106;28;20057;-72
2022/10/13 01:11:16;;;;;;;11.63;6.80;;;;;;;16.12;79.04;101468.91;5052062;28;20516;-72
2022/10/13 01:14:11;;;;;;;10.32;6.80;;;;;;;16.15;79.00;101462.00;5050312;28;20052;-72
2022/10/13 01:17:03;;;;;;;10.35;6.15;;;;;;;16.06;79.65;101470.09;5045854;28;20063;-72
2022/10/13 01:19:59;;;;;;;17.20;7.13;;;;;;;16.12;80.32;101463.41;5048888;28;20499;-72
2022/10/13 01:23:05;;;;;;;10.30;6.60;;;;;;;16.06;79.95;101464.59;5051098;28;20083;-72
2022/10/13 01:25:42;;;;;;;15.18;7.00;;;;;;;16.07;79.71;101466.22;5050979;28;20052;-72
2022/10/13 01:28:52;;;;;;;14.98;6.55;;;;;;;16.04;79.34;101461.28;5050340;28;20037;-72
2022/10/13 01:31:25;;;;;;;10.23;6.40;;;;;;;15.99;80.38;101458.59;5049063;28;20058;-72
2022/10/13 01:34:30;;;;;;;10.57;7.05;;;;;;;16.04;79.82;101452.19;5039853;28;20482;-72
2022/10/13 01:37:19;;;;;;;13.55;6.88;;;;;;;15.98;80.42;101443.13;5049350;28;20407;-72
2022/10/13 01:39:56;;;;;;;14.35;6.88;;;;;;;15.95;80.05;101455.63;5051123;28;20395;-72
2022/10/13 01:42:42;;;;;;;18.98;7.35;;;;;;;15.97;80.17;101430.47;5052568;28;20044;-72
2022/10/13 01:45:20;;;;;;;11.82;6.55;;;;;;;15.92;80.56;101436.00;5050036;28;20041;-72
2022/10/13 01:47:49;;;;;;;11.70;6.72;;;;;;;15.94;80.28;101433.81;5049376;28;20565;-72
2022/10/13 01:50:19;;;;;;;13.13;7.22;;;;;;;16.01;79.83;101438.97;5050666;28;20041;-72
2022/10/13 01:52:49;;;;;;;14.43;7.45;;;;;;;15.94;79.74;101439.34;5051174;28;20044;-72
2022/10/13 01:55:16;;;;;;;15.43;7.05;;;;;;;15.92;79.98;101444.28;5050862;28;20041;-72
2022/10/13 01:57:44;;;;;;;11.88;6.50;;;;;;;15.93;80.49;101444.03;5052475;28;20053;-72
2022/10/13 02:00:18;;;;;;;11.77;7.00;;;;;;;15.90;80.49;101432.72;5054046;28;20049;-72
2022/10/13 02:03:16;;;;;;;14.63;6.55;;;;;;;15.87;80.33;101433.34;5045646;28;20048;-72
2022/10/13 02:05:48;;;;;;;9.80;7.07;;;;;;;15.88;80.27;101429.47;5053785;28;20048;-72
2022/10/13 02:08:26;;;;;;;9.38;5.88;;;;;;;15.79;80.73;101426.53;5053854;28;20052;-72
2022/10/13 02:11:09;;;;;;;13.02;6.68;;;;;;;15.70;80.68;101418.06;5053996;28;20053;-72
2022/10/13 02:13:42;;;;;;;13.30;6.43;;;;;;;15.69;81.11;101416.44;5054804;28;20076;-72
2022/10/13 02:16:12;;;;;;;10.38;6.38;;;;;;;15.63;81.67;101409.34;5055454;28;20056;-72
2022/10/13 02:18:41;;;;;;;17.50;6.95;;;;;;;15.63;81.49;101406.59;5052527;28;20041;-72
2022/10/13 02:21:09;;;;;;;16.20;6.70;;;;;;;15.66;81.44;101405.97;5054039;28;20033;-72
2022/10/13 02:23:37;;;;;;;9.13;5.65;;;;;;;15.73;81.08;101411.94;5054395;28;20045;-72
2022/10/13 02:26:08;;;;;;;11.52;6.85;;;;;;;15.70;80.83;101409.81;5054855;28;20037;-72
2022/10/13 02:28:37;;;;;;;10.05;5.88;;;;;;;15.61;81.34;101411.56;5053371;28;20157;-72
2022/10/13 02:31:07;;;;;;;11.35;6.07;;;;;;;15.67;80.73;101407.63;5052386;28;20048;-72
2022/10/13 02:33:35;;;;;;;13.43;6.70;;;;;;;15.62;81.15;101404.91;5051017;28;20056;-72
2022/10/13 02:36:04;;;;;;;10.73;6.15;;;;;;;15.43;81.48;101402.91;5053543;28;20041;-72
2022/10/13 02:38:31;;;;;;;9.55;6.05;;;;;;;15.55;81.11;101397.00;5053884;28;20480;-72
2022/10/13 02:41:01;;;;;;;9.73;6.40;;;;;;;15.53;81.55;101402.81;5054061;28;20041;-72
2022/10/13 02:43:29;;;;;;;10.90;6.05;;;;;;;15.46;81.99;101391.31;5051697;28;20072;-72
2022/10/13 02:45:57;;;;;;;8.60;5.97;;;;;;;15.43;81.70;101398.25;5053804;28;20037;-72
2022/10/13 02:48:24;;;;;;;11.68;6.72;;;;;;;15.45;81.55;101393.25;5053860;28;20064;-72
2022/10/13 02:50:53;;;;;;;11.80;7.53;;;;;;;15.42;81.94;101384.75;5052507;28;20033;-72
2022/10/13 02:53:20;;;;;;;10.80;6.40;;;;;;;15.45;81.74;101384.16;5053829;28;20041;-72
2022/10/13 02:55:48;;;;;;;13.88;6.07;;;;;;;15.52;81.33;101392.91;5054660;28;20396;-72
2022/10/13 02:58:16;;;;;;;11.32;6.72;;;;;;;15.54;81.79;101392.63;5053662;28;20060;-72
2022/10/13 03:00:44;;;;;;;13.90;6.60;;;;;;;15.51;81.48;101388.50;5051955;28;20052;-71
2022/10/13 03:03:12;;;;;;;11.70;7.05;;;;;;;15.53;81.28;101386.25;5049302;28;20053;-72
2022/10/13 03:05:40;;;;;;;15.02;6.32;;;;;;;15.42;81.37;101388.31;5049404;28;20403;-72
2022/10/13 03:08:08;;;;;;;13.23;6.30;;;;;;;15.39;81.53;101393.59;5051749;28;20037;-72
2022/10/13 03:10:37;;;;;;;12.07;6.57;;;;;;;15.38;81.64;101391.94;5053596;28;20336;-72
2022/10/13 03:13:04;;;;;;;11.75;6.30;;;;;;;15.39;81.83;101390.84;5053015;28;20033;-72
2022/10/13 03:15:32;;;;;;;10.55;6.38;;;;;;;15.36;81.56;101385.91;5053617;28;20488;-72
2022/10/13 03:18:01;;;;;;;12.80;7.03;;;;;;;15.30;81.68;101388.72;5053096;28;20033;-72
2022/10/13 03:20:29;;;;;;;13.40;6.85;;;;;;;15.26;81.93;101381.34;5052378;28;20045;-72
2022/10/13 03:22:57;;;;;;;9.93;6.20;;;;;;;15.25;82.17;101380.50;5052179;28;20041;-72
2022/10/13 03:25:25;;;;;;;11.75;6.78;;;;;;;15.21;82.00;101393.25;5052086;28;20399;-72
2022/10/13 03:27:55;;;;;;;12.07;7.28;;;;;;;15.23;81.99;101388.25;5052049;28;20044;-72
2022/10/13 03:30:22;;;;;;;17.27;6.78;;;;;;;15.23;81.85;101398.44;5051003;28;20048;-72
2022/10/13 03:32:50;;;;;;;10.32;6.50;;;;;;;15.17;82.29;101392.19;5052460;28;20037;-72
2022/10/13 03:35:18;;;;;;;9.63;6.70;;;;;;;15.17;81.99;101390.22;5053176;28;20045;-72
2022/10/13 03:37:46;;;;;;;13.68;7.95;;;;;;;15.17;82.37;101395.72;5049777;28;20048;-72
2022/10/13 03:40:14;;;;;;;12.43;7.20;;;;;;;15.22;81.83;101389.38;5052473;28;20059;-72
2022/10/13 03:42:42;;;;;;;12.68;6.85;;;;;;;15.10;82.87;101387.00;5052935;28;20045;-72
2022/10/13 03:45:10;;;;;;;12.55;7.78;;;;;;;15.13;82.35;101380.06;5052557;28;20053;-71
2022/10/13 03:47:38;;;;;;;14.52;8.07;;;;;;;14.97;82.82;101390.44;5052000;28;20044;-71
2022/10/13 03:50:06;;;;;;;16.05;7.22;;;;;;;15.02;83.26;101393.94;5052737;28;20040;-72
2022/10/13 03:52:34;;;;;;;13.30;7.03;;;;;;;15.03;82.86;101405.81;5047968;28;20037;-72
2022/10/13 03:55:02;;;;;;;13.27;7.63;;;;;;;15.01;82.51;101392.31;5051746;28;20038;-71
2022/10/13 03:57:29;;;;;;;14.88;7.25;;;;;;;14.93;83.05;101400.38;5052328;28;20052;-72
2022/10/13 03:59:57;;;;;;;13.57;7.28;;;;;;;14.88;83.81;101401.25;5051537;28;20123;-72
2022/10/13 04:02:26;;;;;;;17.17;7.57;;;;;;;14.81;83.72;101393.31;5052408;28;20044;-72
2022/10/13 04:04:54;;;;;;;15.48;8.00;;;;;;;14.82;83.73;101396.91;5051990;28;20037;-72
2022/10/13 04:07:22;;;;;;;15.02;7.53;;;;;;;14.82;84.33;101400.50;5051253;28;20056;-71
2022/10/13 04:09:50;;;;;;;12.60;8.15;;;;;;;14.83;83.80;101395.78;5049758;28;20411;-72
2022/10/13 04:12:18;;;;;;;13.13;8.57;;;;;;;14.92;83.27;101394.06;5048277;28;20056;-71
2022/10/13 04:14:47;;;;;;;16.25;7.28;;;;;;;14.93;83.39;101398.47;5050913;28;20037;-72
2022/10/13 04:17:15;;;;;;;16.17;8.10;;;;;;;14.93;83.52;101403.13;5052392;28;20570;-72
2022/10/13 04:19:43;;;;;;;15.82;7.70;;;;;;;14.85;83.56;101397.16;5050314;28;20056;-71
2022/10/13 04:22:11;;;;;;;14.10;8.35;;;;;;;14.89;82.76;101402.91;5044004;28;20056;-71
2022/10/13 04:24:40;;;;;;;9.77;6.30;;;;;;;14.89;82.70;101389.13;5050687;28;20045;-72
2022/10/13 04:27:09;;;;;;;14.13;8.10;;;;;;;14.87;83.88;101394.09;5050083;28;20044;-72
2022/10/13 04:29:36;;;;;;;15.25;7.25;;;;;;;14.83;83.71;101391.13;5047722;28;20067;-71
2022/10/13 04:32:04;;;;;;;16.00;7.15;;;;;;;14.74;84.15;101387.28;5024946;28;20049;-72
2022/10/13 04:34:32;;;;;;;11.50;6.78;;;;;;;14.77;83.69;101382.06;5052768;28;20052;-71
2022/10/13 04:37:00;;;;;;;15.32;7.18;;;;;;;14.85;83.51;101377.03;5052604;28;20061;-72
2022/10/13 04:39:28;;;;;;;16.48;7.22;;;;;;;14.88;83.44;101384.72;5052701;28;20052;-72
2022/10/13 04:41:56;;;;;;;12.27;6.78;;;;;;;14.81;83.67;101365.75;5050550;28;20040;-72
2022/10/13 04:44:24;;;;;;;10.75;7.32;;;;;;;15.08;82.83;101369.09;5051937;28;20514;-81
2022/10/13 04:46:52;;;;;;;13.68;7.32;;;;;;;15.10;81.25;101361.38;5052264;28;20041;-82
2022/10/13 04:49:20;;;;;;;14.23;7.53;;;;;;;15.11;81.97;101363.00;5049897;28;20045;-82
2022/10/13 04:51:48;;;;;;;10.77;6.95;;;;;;;15.18;81.48;101357.97;5050069;28;20044;-83
2022/10/13 04:54:15;;;;;;;14.40;7.28;;;;;;;15.11;81.57;101354.75;5050997;28;20045;-83
2022/10/13 04:56:44;;;;;;;17.17;7.45;;;;;;;15.05;82.03;101354.78;5052325;28;20175;-84
2022/10/13 04:59:12;;;;;;;13.00;6.38;;;;;;;14.99;82.08;101349.63;5050928;28;20483;-83
2022/10/13 05:01:40;;;;;;;12.23;6.97;;;;;;;15.01;82.02;101350.97;5050871;28;20041;-83
2022/10/13 05:04:12;;;;;;;10.25;7.07;;;;;;;14.91;82.55;101348.34;5051928;28;20388;-82
2022/10/13 05:06:41;;;;;;;11.85;6.85;;;;;;;15.03;82.04;101351.53;5052098;28;20045;-83
2022/10/13 05:09:29;;;;;;;11.82;7.18;;;;;;;15.02;82.45;101344.34;5040492;28;20392;-83
2022/10/13 05:11:57;;;;;;;13.25;6.57;;;;;;;15.03;82.22;101356.19;5051247;28;20056;-84
2022/10/13 05:14:25;;;;;;;13.55;7.15;;;;;;;15.00;81.76;101345.78;5046482;28;20045;-82
2022/10/13 05:16:53;;;;;;;12.23;7.13;;;;;;;14.91;82.22;101346.38;5051218;28;20044;-81
2022/10/13 05:19:21;;;;;;;12.90;6.90;;;;;;;15.01;81.94;101350.16;5042784;28;20057;-81
2022/10/13 05:21:49;;;;;;;16.05;7.50;;;;;;;15.03;81.74;101347.94;5051696;28;20041;-82
2022/10/13 05:24:16;;;;;;;12.25;6.32;;;;;;;15.04;82.17;101342.13;5049869;28;20507;-80
2022/10/13 05:26:48;;;;;;;9.80;6.10;;;;;;;15.21;80.08;101335.34;5050731;28;20108;-71
2022/10/13 05:29:17;;;;;;;9.55;6.43;;;;;;;15.16;80.86;101343.66;5051117;28;20045;-71
2022/10/13 05:31:45;;;;;;;13.18;6.32;;;;;;;15.08;80.92;101347.88;5050542;28;20037;-71
2022/10/13 05:34:12;;;;;;;11.32;6.57;;;;;;;15.02;81.23;101347.09;5050930;28;20056;-71
2022/10/13 05:36:40;;;;;;;11.32;6.47;;;;;;;15.00;81.01;101346.56;5051419;28;20068;-71
2022/10/13 05:39:08;;;;;;;15.18;6.60;;;;;;;14.98;81.73;101351.56;5051008;28;20052;-71
2022/10/13 05:41:38;;;;;;;9.60;6.35;;;;;;;14.95;81.92;101354.88;5050547;28;20056;-71
2022/10/13 05:44:13;;;;;;;11.90;6.40;;;;;;;14.81;81.95;101348.44;5039129;28;20049;-71
2022/10/13 05:46:53;;;;;;;8.88;5.85;;;;;;;14.77;81.64;101349.00;5051250;28;20407;-71
2022/10/13 05:49:21;;;;;;;14.35;6.88;;;;;;;14.76;82.23;101358.38;5051686;28;20053;-71
2022/10/13 05:51:53;;;;;;;10.77;6.97;;;;;;;14.82;82.41;101361.09;5051780;28;20526;-71
2022/10/13 05:54:34;;;;;;;9.68;6.38;;;;;;;14.81;82.02;101356.69;5051031;28;20057;-71
2022/10/13 05:57:07;;;;;;;11.70;7.28;;;;;;;14.81;82.35;101362.22;5051276;28;20060;-71
2022/10/13 05:59:44;;;;;;;13.02;7.15;;;;;;;14.95;81.81;101362.34;5051721;28;20045;-71
2022/10/13 06:02:15;;;;;;;12.95;7.80;;;;;;;14.93;81.52;101359.88;5050554;28;20057;-71
2022/10/13 06:04:48;;;;;;;20.92;9.23;;;;;;;15.02;81.55;101363.63;5050536;28;20057;-71
2022/10/13 06:07:16;;;;;;;16.83;9.10;;;;;;;15.08;81.01;101361.66;5050671;28;20057;-71
2022/10/13 06:09:44;;;;;;;16.02;8.35;;;;;;;15.14;81.18;101362.41;5050955;28;20707;-72
2022/10/13 06:12:12;;;;;;;17.95;8.45;;;;;;;15.35;80.46;101362.22;5051540;28;20060;-71
2022/10/13 06:14:40;;;;;;;15.05;8.00;;;;;;;15.36;79.95;101358.34;5050656;28;20045;-71
2022/10/13 06:17:11;;;;;;;16.67;8.30;;;;;;;15.50;79.92;101364.78;5051442;28;20041;-71
2022/10/13 06:19:44;;;;;;;12.55;7.28;;;;;;;15.66;78.47;101370.09;5051163;28;20041;-72
2022/10/13 06:22:11;;;;;;;11.52;7.93;;;;;;;15.92;78.10;101364.25;5051137;28;20049;-71
2022/10/13 06:24:39;;;;;;;13.60;7.18;;;;;;;16.06;77.45;101367.94;5050561;28;20566;-71
2022/10/13 06:27:09;;;;;;;12.50;7.38;;;;;;;16.25;76.90;101361.59;5051273;28;20503;-71
2022/10/13 06:29:37;;;;;;;18.17;7.90;;;;;;;16.32;77.50;101369.53;5050651;28;20076;-71
2022/10/13 06:32:05;;;;;;;17.20;7.53;;;;;;;16.45;75.57;101368.75;5050693;28;20048;-71
2022/10/13 06:34:33;;;;;;;12.23;7.05;;;;;;;16.36;76.15;101363.09;5050494;28;20423;-71
2022/10/13 06:37:01;;;;;;;13.60;6.97;;;;;;;16.37;75.94;101364.72;5050954;28;20399;-71
2022/10/13 06:39:29;;;;;;;14.95;7.10;;;;;;;16.65;74.77;101375.88;5050312;28;20410;-71
2022/10/13 06:42:00;;;;;;;14.07;6.93;;;;;;;17.02;73.33;101376.09;5050485;28;20041;-71
2022/10/13 06:44:37;;;;;;;13.88;7.15;;;;;;;17.05;74.39;101378.28;5052731;28;20399;-71
2022/10/13 06:47:05;;;;;;;21.27;6.93;;;;;;;17.01;72.60;101379.16;5054107;28;20625;-71
2022/10/13 06:49:33;;;;;;;14.35;6.57;;;;;;;17.15;73.02;101376.41;5054481;28;20053;-72
2022/10/13 06:52:01;;;;;;;13.27;7.70;;;;;;;17.54;71.57;101377.09;5054441;28;20060;-71
2022/10/13 06:54:29;;;;;;;12.20;6.60;;;;;;;17.57;70.82;101382.81;5054642;28;20403;-71
2022/10/13 06:56:57;;;;;;;13.80;7.15;;;;;;;17.91;71.12;101380.72;5052621;28;20075;-71
2022/10/13 06:59:26;;;;;;;13.20;7.78;;;;;;;17.93;69.29;101384.00;5054009;28;20052;-72
2022/10/13 07:01:54;;;;;;;16.58;7.75;;;;;;;17.97;69.54;101387.78;5054326;28;20056;-72
2022/10/13 07:04:24;;;;;;;13.35;7.97;;;;;;;18.06;69.17;101376.81;5054185;28;20053;-72
2022/10/13 07:06:56;;;;;;;17.55;8.13;;;;;;;17.99;69.70;101379.97;5054607;28;20045;-72
2022/10/13 07:09:24;;;;;;;15.95;7.38;;;;;;;18.17;69.40;101382.94;5054186;28;20044;-72
2022/10/13 07:11:52;;;;;;;17.83;8.52;;;;;;;18.29;69.28;101384.34;5054028;28;20057;-72
2022/10/13 07:14:20;;;;;;;15.27;7.88;;;;;;;18.45;68.14;101382.84;5053498;28;20056;-72
2022/10/13 07:16:48;;;;;;;15.43;7.75;;;;;;;18.62;68.28;101392.44;5054307;28;20045;-73
2022/10/13 07:19:16;;;;;;;14.80;8.25;;;;;;;18.89;67.33;101390.63;5052833;28;20045;-72
2022/10/13 07:21:43;;;;;;;13.77;6.72;;;;;;;18.91;67.07;101399.44;5054027;28;20045;-72
2022/10/13 07:24:11;;;;;;;14.20;7.93;;;;;;;19.18;67.13;101398.50;5053675;28;20495;-71
2022/10/13 07:26:39;;;;;;;13.50;7.03;;;;;;;19.19;65.94;101391.81;5054043;28;20041;-71
2022/10/13 07:29:07;;;;;;;12.75;7.65;;;;;;;19.37;65.81;101396.63;5053908;28;20037;-71
2022/10/13 07:31:35;;;;;;;15.98;8.13;;;;;;;19.63;65.34;101399.47;5053603;28;20048;-71
2022/10/13 07:34:04;;;;;;;12.70;7.47;;;;;;;19.92;64.17;101405.59;5052513;28;20052;-71
2022/10/13 07:36:32;;;;;;;16.05;8.30;;;;;;;20.18;63.94;101405.66;5053833;28;20049;-71
2022/10/13 07:39:02;;;;;;;14.30;7.20;;;;;;;20.10;64.15;101404.50;5053828;28;20044;-71
2022/10/13 07:41:31;;;;;;;12.43;7.78;;;;;;;20.13;64.03;101406.63;5053648;28;20056;-71
2022/10/13 07:43:59;;;;;;;19.35;8.13;;;;;;;20.41;62.41;101403.56;5052295;28;20041;-71
2022/10/13 07:46:26;;;;;;;13.20;7.63;;;;;;;20.57;61.72;101391.13;5052488;28;20534;-71
2022/10/13 07:48:55;;;;;;;13.05;7.63;;;;;;;20.66;61.86;101397.47;5052251;28;20048;-71
2022/10/13 07:51:22;;;;;;;13.20;7.63;;;;;;;20.62;62.22;101402.06;5053573;28;20064;-71
2022/10/13 07:53:51;;;;;;;14.30;7.75;;;;;;;20.73;60.72;101397.78;5051854;28;20056;-71
2022/10/13 07:56:18;;;;;;;14.50;7.30;;;;;;;20.76;60.87;101391.56;5053485;28;20044;-71
2022/10/13 07:58:46;;;;;;;13.93;8.05;;;;;;;20.89;60.19;101395.34;5053298;28;20049;-71
2022/10/13 08:01:15;;;;;;;11.05;7.28;;;;;;;21.15;59.54;101397.22;5053213;28;20407;-72
2022/10/13 08:03:44;;;;;;;9.23;6.55;;;;;;;20.98;58.69;101392.53;5052087;28;20048;-72
2022/10/13 08:06:18;;;;;;;13.80;7.32;;;;;;;21.31;57.89;101393.91;5040319;28;20396;-72
2022/10/13 08:08:46;;;;;;;14.00;7.22;;;;;;;21.45;56.91;101386.13;5052041;28;20052;-72
2022/10/13 08:11:17;;;;;;;16.02;8.45;;;;;;;21.64;56.33;101396.00;5053033;28;20041;-73
2022/10/13 08:13:49;;;;;;;16.45;7.82;;;;;;;21.58;56.06;101387.06;5053241;28;20049;-73
2022/10/13 08:16:22;;;;;;;14.35;7.22;;;;;;;21.54;56.31;101390.81;5052900;28;20095;-71
2022/10/13 08:18:50;;;;;;;14.63;7.97;;;;;;;21.66;56.24;101395.69;5052805;28;20056;-71
2022/10/13 08:21:21;;;;;;;13.15;7.15;;;;;;;21.84;55.13;101393.63;5051267;28;20048;-71
2022/10/13 08:24:12;;;;;;;14.20;6.43;;;;;;;21.78;54.92;101389.41;5047853;28;20057;-72
2022/10/13 08:26:41;;;;;;;14.10;8.00;;;;;;;21.93;54.68;101388.81;5039248;28;20067;-71
2022/10/13 08:29:10;;;;;;;11.60;7.47;;;;;;;21.90;54.42;101389.50;5052326;28;20049;-71
2022/10/13 08:31:53;;;;;;;13.82;7.85;;;;;;;21.97;53.34;101387.00;5049984;28;20452;-72
2022/10/13 08:34:22;;;;;;;13.00;6.93;;;;;;;22.04;53.46;101382.84;5050094;28;20060;-71
2022/10/13 08:36:53;;;;;;;13.25;7.82;;;;;;;22.21;53.85;101385.50;5049048;28;20049;-71
2022/10/13 08:39:23;;;;;;;15.60;7.85;;;;;;;21.56;54.61;101377.41;5042112;28;20499;-73
2022/10/13 08:41:53;;;;;;;14.93;7.78;;;;;;;21.75;53.85;101380.59;5050987;28;20495;-72
2022/10/13 08:44:33;;;;;;;15.85;7.00;;;;;;;21.82;54.51;101387.59;5047185;28;20056;-72
2022/10/13 08:47:26;;;;;;;16.30;7.82;;;;;;;22.10;52.61;101375.94;5050122;28;20037;-72
2022/10/13 08:49:56;;;;;;;17.40;8.10;;;;;;;22.09;53.34;101383.47;5045098;28;20045;-72
2022/10/13 08:52:48;;;;;;;10.02;7.88;;;;;;;22.36;52.74;101378.50;5045610;28;20483;-72
2022/10/13 08:55:28;;;;;;;15.73;7.60;;;;;;;22.31;53.26;101380.66;5040825;28;20045;-72
2022/10/13 08:57:57;;;;;;;16.25;8.25;;;;;;;22.38;51.89;101372.59;5050364;28;20052;-72
2022/10/13 09:00:29;;;;;;;16.60;7.78;;;;;;;22.55;51.17;101369.63;5045341;28;20372;-72
2022/10/13 09:03:16;;;;;;;11.07;7.47;;;;;;;22.13;51.63;101378.84;5049896;28;20047;-72
2022/10/13 09:06:10;;;;;;;13.55;7.63;;;;;;;22.12;51.55;101371.66;5046501;28;20045;-72
2022/10/13 09:08:50;;;;;;;15.38;7.18;;;;;;;22.52;50.98;101377.88;5041635;28;20037;-72
2022/10/13 09:11:19;;;;;;;14.45;7.18;;;;;;;23.02;49.48;101372.44;5049137;28;20045;-72
2022/10/13 09:13:47;;;;;;;14.68;7.63;;;;;;;22.76;50.64;101371.56;5047880;28;20048;-72
2022/10/13 09:16:25;;;;;;;15.38;7.55;;;;;;;22.69;50.53;101365.75;5047976;28;20399;-70
2022/10/13 09:18:53;;;;;;;10.88;7.10;;;;;;;22.91;50.75;101372.06;5048097;28;20040;-71
2022/10/13 09:21:23;;;;;;;13.65;7.65;;;;;;;23.04;50.08;101370.09;5043239;28;20138;-71
2022/10/13 09:23:53;;;;;;;12.15;8.90;;;;;;;22.88;51.11;101361.59;5046263;28;20049;-72
2022/10/13 09:26:23;;;;;;;14.40;8.18;;;;;;;22.92;50.84;101363.34;5048578;28;20047;-72
2022/10/13 09:28:52;;;;;;;12.77;7.45;;;;;;;22.94;50.42;101357.44;5046029;28;20551;-71
2022/10/13 09:31:24;;;;;;;14.25;8.77;;;;;;;23.37;49.95;101362.84;5049401;28;20372;-71
2022/10/13 09:34:08;;;;;;;12.60;7.82;;;;;;;23.37;49.56;101365.63;5045240;28;20037;-72
2022/10/13 09:36:37;;;;;;;10.50;7.55;;;;;;;23.67;49.91;101362.59;5044870;28;20053;-71
2022/10/13 09:39:13;;;;;;;14.95;7.80;;;;;;;23.52;49.11;101358.53;5045075;28;20056;-72
2022/10/13 09:41:44;;;;;;;11.68;7.97;;;;;;;23.48;49.21;101353.66;5045763;28;20052;-76
2022/10/13 09:44:25;;;;;;;13.57;8.98;;;;;;;23.68;49.37;101353.84;5044391;28;20499;-76
2022/10/13 09:46:57;;;;;;;13.43;7.50;;;;;;;23.91;48.68;101356.16;5046173;28;20049;-76
2022/10/13 09:49:36;;;;;;;13.82;9.00;;;;;;;23.95;48.53;101351.44;5048915;28;20045;-76
2022/10/13 09:52:16;;;;;;;13.30;8.25;;;;;;;24.19;47.41;101348.97;5043638;28;20064;-75
2022/10/13 09:54:49;;;;;;;20.10;7.97;;;;;;;24.28;46.73;101347.66;5050618;28;20084;-76
2022/10/13 09:57:47;;;;;;;10.55;6.72;;;;;;;24.42;47.22;101352.03;5046586;28;20060;-75
2022/10/13 10:00:21;;;;;;;14.13;7.72;;;;;;;24.51;47.19;101349.06;5044814;28;20518;-75
2022/10/13 10:02:48;;;;;;;;;;;;;;;24.24;47.67;101343.13;5038718;28;20045;-76
2022/10/13 10:05:27;;;;;;;15.02;7.35;;;;;;;24.47;47.06;101345.34;5040830;28;19979;-76
2022/10/13 10:08:01;;;;;;;13.35;8.48;;;;;;;24.41;45.68;101339.22;5048597;28;20052;-76
2022/10/13 10:10:35;;;;;;;15.45;8.73;;;;;;;24.67;46.76;101324.72;5050671;28;20057;-76
2022/10/13 10:13:11;;;;;;;12.50;8.50;;;;;;;24.24;47.61;101334.75;5049133;28;20115;-75
2022/10/13 10:15:52;;;;;;;16.30;8.57;;;;;;;24.03;47.99;101321.75;5050287;28;20052;-76
2022/10/13 10:18:25;;;;;;;17.80;8.77;;;;;;;24.00;48.42;101328.06;5052062;28;20134;-76
2022/10/13 10:21:13;;;;;;;16.98;9.43;;;;;;;24.58;47.10;101321.28;5054852;28;20044;-76
2022/10/13 10:23:47;;;;;;;15.18;8.63;;;;;;;25.01;46.43;101321.59;5052402;28;20048;-76
2022/10/13 10:26:21;;;;;;;15.00;8.65;;;;;;;25.03;45.95;101315.66;5054117;28;20052;-75
2022/10/13 10:29:23;;;;;;;17.33;9.65;;;;;;;24.41;46.97;101312.06;5053049;28;20400;-75
2022/10/13 10:32:08;;;;;;;17.73;9.25;;;;;;;24.57;46.59;101311.25;5052404;28;20041;-76
2022/10/13 10:34:49;;;;;;;14.88;9.13;;;;;;;24.67;46.37;101307.09;5054931;28;20052;-75
2022/10/13 10:37:23;;;;;;;16.23;9.10;;;;;;;24.49;47.29;101306.66;5038744;28;20049;-76
2022/10/13 10:40:02;;;;;;;15.65;8.95;;;;;;;24.72;46.59;101301.25;5053897;28;20045;-76
2022/10/13 10:42:57;;;;;;;19.17;7.80;;;;;;;25.21;45.86;101294.50;5041878;28;20145;-76
2022/10/13 10:45:26;;;;;;;;;;;;;;;24.95;45.42;101290.28;5054580;28;20045;-86
2022/10/13 10:48:00;;;;;;;18.55;8.13;;;;;;;24.56;46.06;101290.06;5018386;28;19920;-89
2022/10/13 10:50:30;;;;;;;14.88;7.93;;;;;;;24.36;47.43;101275.97;5036618;28;20053;-88
2022/10/13 10:53:08;;;;;;;14.55;8.27;;;;;;;24.15;46.88;101276.19;5037181;28;20060;-87
2022/10/13 10:55:49;;;;;;;17.95;8.05;;;;;;;24.20;47.90;101267.53;5053161;28;20049;-86
2022/10/13 10:58:52;;;;;;;12.20;7.95;;;;;;;24.22;48.06;101264.38;5033971;28;20422;-91
2022/10/13 11:01:31;;;;;;;13.93;8.70;;;;;;;23.92;48.41;101256.31;5036336;28;20049;-92
2022/10/13 11:04:14;;;;;;;17.05;8.25;;;;;;;23.83;48.79;101254.50;5023992;28;20050;-92
2022/10/13 11:06:42;;;;;;;14.88;7.75;;;;;;;23.80;48.83;101255.19;5034473;28;20054;-87
2022/10/13 11:09:11;;;;;;;12.77;7.68;;;;;;;23.73;48.87;101246.63;5013332;28;20057;-90
2022/10/13 11:11:42;;;;;;;14.00;7.55;;;;;;;23.89;48.75;101253.09;5017247;28;20049;-92
2022/10/13 11:14:26;;;;;;;14.95;8.38;;;;;;;23.85;49.37;101246.56;5035235;28;20495;-90
2022/10/13 11:17:01;;;;;;;13.10;8.38;;;;;;;24.00;49.36;101235.81;5022338;28;20065;-91
2022/10/13 11:19:33;;;;;;;13.95;8.98;;;;;;;24.13;48.65;101242.97;5036892;28;20041;-89
2022/10/13 11:22:01;;;;;;;16.73;8.68;;;;;;;23.92;48.95;101240.38;5035627;28;20395;-91
2022/10/13 11:24:40;;;;;;;14.88;8.45;;;;;;;24.10;48.55;101235.31;5036143;28;20045;-92
2022/10/13 11:27:13;;;;;;;17.25;7.93;;;;;;;24.21;47.98;101234.78;5030513;28;20407;-92
2022/10/13 11:29:47;;;;;;;12.20;7.38;;;;;;;24.00;47.85;101230.22;5031186;28;20045;-92
2022/10/13 11:32:29;;;;;;;10.70;6.63;;;;;;;24.11;47.90;101214.59;5009482;28;20048;-89
2022/10/13 11:35:00;;;;;;;16.13;7.50;;;;;;;24.25;47.20;101213.34;5017356;28;20043;-90
2022/10/13 11:37:51;;;;;;;16.75;7.50;;;;;;;24.27;46.24;101210.97;5036944;28;20057;-92
2022/10/13 11:40:54;;;;;;;14.23;7.85;;;;;;;24.29;46.48;101205.81;5047508;28;20712;-91
2022/10/13 11:43:31;;;;;;;11.27;7.13;;;;;;;24.15;47.94;101195.91;5018927;28;20059;-90
2022/10/13 11:46:17;;;;;;;11.32;7.38;;;;;;;24.50;47.10;101200.00;5036085;28;20048;-91